Time;durP1;ratioP1;P1;durP2;ratioP2;P2;SDS_P1;SDS_P2;PMS_P1;PMS_P2;Temp;Humidity;BMP_temperature;BMP_pressure;BME280_temperature;BME280_humidity;BME280_pressure;Samples;Min_cycle;Max_cycle;Signal;HPM_P1;HPM_P2
2022/12/12 00:01:27;;;;;;;31.60;14.00;;;;;;;-4.09;100.00;96597.13;5044521;28;20051;-62
2022/12/12 00:03:54;;;;;;;34.92;15.52;;;;;;;-3.87;100.00;96591.97;5041386;28;20083;-62
2022/12/12 00:06:22;;;;;;;33.08;15.93;;;;;;;-4.05;100.00;96595.78;5049083;28;20052;-62
2022/12/12 00:08:48;;;;;;;35.13;15.70;;;;;;;-4.13;100.00;96600.31;5048892;28;20128;-61
2022/12/12 00:11:15;;;;;;;35.08;16.17;;;;;;;-4.29;100.00;96603.88;5049057;28;20480;-62
2022/12/12 00:13:42;;;;;;;36.22;17.67;;;;;;;-4.45;100.00;96603.81;5048674;28;20132;-61
2022/12/12 00:16:09;;;;;;;30.98;14.75;;;;;;;-4.46;100.00;96596.91;5048848;28;20041;-61
2022/12/12 00:18:36;;;;;;;37.88;16.63;;;;;;;-4.47;100.00;96592.63;5047029;28;20074;-60
2022/12/12 00:21:06;;;;;;;37.78;17.08;;;;;;;-4.41;100.00;96595.56;5027960;28;20431;-61
2022/12/12 00:23:33;;;;;;;32.47;15.80;;;;;;;-4.24;100.00;96593.63;5028817;28;20121;-61
2022/12/12 00:26:03;;;;;;;32.70;15.23;;;;;;;-3.94;100.00;96599.00;5028544;28;20499;-62
2022/12/12 00:28:30;;;;;;;34.35;16.63;;;;;;;-4.26;100.00;96598.25;5029093;28;20403;-61
2022/12/12 00:30:57;;;;;;;33.25;15.88;;;;;;;-4.34;100.00;96596.50;5027671;28;20488;-61
2022/12/12 00:33:23;;;;;;;35.00;16.58;;;;;;;-4.46;100.00;96594.25;5036763;28;20063;-61
2022/12/12 00:35:54;;;;;;;28.88;14.95;;;;;;;-4.39;100.00;96597.03;5048679;28;20114;-62
2022/12/12 00:38:22;;;;;;;39.25;16.33;;;;;;;-4.02;100.00;96594.59;5048260;28;20087;-62
2022/12/12 00:40:53;;;;;;;32.53;15.43;;;;;;;-3.91;100.00;96593.34;5047435;28;20045;-60
2022/12/12 00:43:20;;;;;;;32.97;16.55;;;;;;;-4.26;100.00;96600.91;5047400;28;20049;-61
2022/12/12 00:45:47;;;;;;;32.55;14.68;;;;;;;-4.42;100.00;96605.31;5047944;28;20102;-61
2022/12/12 00:48:13;;;;;;;36.72;15.38;;;;;;;-4.55;100.00;96610.34;5048275;28;20423;-60
2022/12/12 00:50:40;;;;;;;35.78;15.57;;;;;;;-4.21;100.00;96604.66;5028650;28;20065;-61
2022/12/12 00:53:06;;;;;;;34.80;17.30;;;;;;;-4.37;100.00;96607.41;5028434;28;20091;-60
2022/12/12 00:55:33;;;;;;;30.20;13.98;;;;;;;-4.39;100.00;96609.44;5027532;28;20501;-62
2022/12/12 00:58:00;;;;;;;35.42;15.35;;;;;;;-4.41;100.00;96604.31;5027655;28;20133;-61
2022/12/12 01:00:27;;;;;;;35.75;14.43;;;;;;;-4.39;100.00;96609.44;5027361;28;20458;-62
2022/12/12 01:02:57;;;;;;;34.20;15.32;;;;;;;-4.44;100.00;96600.22;5031658;28;20094;-62
2022/12/12 01:05:25;;;;;;;29.35;13.82;;;;;;;-4.50;100.00;96610.66;5048410;28;20037;-63
2022/12/12 01:07:52;;;;;;;33.47;14.88;;;;;;;-4.39;100.00;96612.88;5047707;28;20053;-61
2022/12/12 01:10:19;;;;;;;32.80;14.75;;;;;;;-4.35;100.00;96608.09;5048355;28;20124;-61
2022/12/12 01:12:45;;;;;;;33.05;14.73;;;;;;;-4.40;100.00;96608.59;5048219;28;20127;-61
2022/12/12 01:15:12;;;;;;;35.08;15.23;;;;;;;-4.40;100.00;96610.41;5047570;28;20095;-61
2022/12/12 01:17:39;;;;;;;30.88;15.10;;;;;;;-4.28;100.00;96608.19;5048269;28;20504;-61
2022/12/12 01:20:08;;;;;;;31.90;14.55;;;;;;;-4.29;100.00;96609.16;5033503;28;20408;-61
2022/12/12 01:22:36;;;;;;;31.40;14.80;;;;;;;-4.34;100.00;96607.06;5027086;28;20045;-62
2022/12/12 01:25:03;;;;;;;32.13;15.20;;;;;;;-4.32;100.00;96608.53;5027712;28;20126;-62
2022/12/12 01:27:29;;;;;;;33.08;15.55;;;;;;;-4.32;100.00;96605.91;5027673;28;20041;-61
2022/12/12 01:30:00;;;;;;;28.67;15.00;;;;;;;-4.37;100.00;96602.97;5027756;28;20120;-62
2022/12/12 01:32:27;;;;;;;30.05;14.85;;;;;;;-4.26;100.00;96609.66;5026844;28;20076;-62
2022/12/12 01:34:54;;;;;;;31.73;14.35;;;;;;;-4.15;100.00;96613.72;5027574;28;20090;-62
2022/12/12 01:37:21;;;;;;;29.88;14.90;;;;;;;-3.97;100.00;96616.06;5038808;28;20315;-61
2022/12/12 01:39:47;;;;;;;32.08;13.88;;;;;;;-3.98;100.00;96611.75;5047705;28;20128;-61
2022/12/12 01:42:18;;;;;;;36.35;15.98;;;;;;;-3.87;100.00;96620.28;5046944;28;20063;-62
2022/12/12 01:44:51;;;;;;;32.05;15.57;;;;;;;-3.84;100.00;96615.44;5047388;28;20045;-62
2022/12/12 01:47:20;;;;;;;30.90;15.50;;;;;;;-3.99;100.00;96623.34;5047517;28;20053;-62
2022/12/12 01:49:53;;;;;;;29.88;14.98;;;;;;;-3.95;100.00;96621.13;5047835;28;20500;-61
2022/12/12 01:52:30;;;;;;;29.73;14.95;;;;;;;-4.06;100.00;96623.22;5047048;28;20045;-61
2022/12/12 01:55:00;;;;;;;31.00;13.85;;;;;;;-4.07;100.00;96620.75;5046970;28;20037;-62
2022/12/12 01:57:40;;;;;;;28.73;14.55;;;;;;;-4.01;100.00;96625.34;5047513;28;20394;-62
2022/12/12 02:00:08;;;;;;;32.10;14.23;;;;;;;-4.05;100.00;96627.50;5039288;28;20042;-61
2022/12/12 02:02:36;;;;;;;33.90;15.43;;;;;;;-4.11;100.00;96622.94;5044029;28;20045;-62
2022/12/12 02:05:17;;;;;;;31.10;13.30;;;;;;;-4.25;100.00;96623.69;5046712;28;20492;-62
2022/12/12 02:07:44;;;;;;;33.47;15.57;;;;;;;-4.13;100.00;96624.91;5045862;28;20065;-62
2022/12/12 02:10:10;;;;;;;29.42;14.00;;;;;;;-4.11;100.00;96628.22;5046387;28;20044;-61
2022/12/12 02:12:37;;;;;;;32.65;13.77;;;;;;;-4.14;100.00;96628.56;5046174;28;20419;-61
2022/12/12 02:15:04;;;;;;;27.13;13.95;;;;;;;-4.21;100.00;96631.09;5046008;28;20103;-61
2022/12/12 02:17:39;;;;;;;28.83;14.25;;;;;;;-4.32;100.00;96629.69;5030154;28;20432;-62
2022/12/12 02:20:27;;;;;;;29.40;13.77;;;;;;;-4.68;100.00;96635.53;5044850;28;20385;-62
2022/12/12 02:23:13;;;;;;;29.45;13.75;;;;;;;-5.01;100.00;96630.41;5046803;28;20165;-62
2022/12/12 02:26:11;;;;;;;30.77;13.40;;;;;;;-4.87;100.00;96631.50;5046372;28;20049;-62
2022/12/12 02:28:56;;;;;;;30.02;14.57;;;;;;;-5.09;100.00;96634.69;5046650;28;20539;-62
2022/12/12 02:31:35;;;;;;;28.63;14.43;;;;;;;-5.56;100.00;96631.06;5046023;28;20044;-61
2022/12/12 02:34:17;;;;;;;32.30;13.88;;;;;;;-5.65;100.00;96627.59;5025404;28;20049;-63
2022/12/12 02:36:58;;;;;;;30.10;14.45;;;;;;;-5.72;100.00;96634.53;5035286;28;20037;-62
2022/12/12 02:39:38;;;;;;;31.80;13.93;;;;;;;-5.77;100.00;96634.19;5046744;28;20249;-61
2022/12/12 02:42:14;;;;;;;34.70;15.77;;;;;;;-5.90;100.00;96640.81;5042202;28;20571;-61
2022/12/12 02:44:45;;;;;;;28.73;13.55;;;;;;;-5.89;100.00;96633.72;5040179;28;20041;-62
2022/12/12 02:47:21;;;;;;;32.92;15.00;;;;;;;-6.00;100.00;96638.31;5045993;28;20512;-62
2022/12/12 02:49:56;;;;;;;33.35;14.02;;;;;;;-6.19;100.00;96642.13;5046601;28;20044;-62
2022/12/12 02:52:23;;;;;;;29.48;13.73;;;;;;;-6.31;100.00;96639.00;5045846;28;20133;-63
2022/12/12 02:54:50;;;;;;;33.47;13.35;;;;;;;-6.38;100.00;96640.63;5046012;28;20496;-62
2022/12/12 02:57:19;;;;;;;31.55;12.98;;;;;;;-6.52;100.00;96642.13;5046303;28;20098;-61
2022/12/12 03:00:07;;;;;;;28.80;13.75;;;;;;;-6.55;100.00;96642.44;5046356;28;20040;-62
2022/12/12 03:02:45;;;;;;;29.90;15.15;;;;;;;-6.56;100.00;96644.22;5046026;28;20052;-61
2022/12/12 03:08:31;;;;;;;34.95;13.98;;;;;;;-6.60;100.00;96642.91;5046014;28;20401;-62
2022/12/12 03:11:07;;;;;;;30.00;15.18;;;;;;;-6.69;100.00;96633.34;5045265;28;20076;-61
2022/12/12 03:13:48;;;;;;;24.52;11.13;;;;;;;-6.88;100.00;96639.69;5046160;28;20508;-61
2022/12/12 03:16:31;;;;;;;36.38;14.90;;;;;;;-6.87;100.00;96630.81;5037578;28;20404;-62
2022/12/12 03:19:15;;;;;;;38.22;15.85;;;;;;;-7.01;100.00;96635.72;5032217;28;20052;-63
2022/12/12 03:22:13;;;;;;;30.23;13.38;;;;;;;-7.06;100.00;96638.00;5045422;28;20103;-61
2022/12/12 03:25:00;;;;;;;34.55;15.50;;;;;;;-7.13;100.00;96644.88;5033387;28;20137;-62
2022/12/12 03:27:34;;;;;;;34.17;14.88;;;;;;;-7.02;100.00;96646.38;5045924;28;20075;-64
2022/12/12 03:30:07;;;;;;;35.00;15.98;;;;;;;-7.05;100.00;96648.38;5045820;28;20041;-61
2022/12/12 03:32:48;;;;;;;31.13;14.93;;;;;;;-7.19;100.00;96646.34;5041835;28;20076;-62
2022/12/12 03:35:19;;;;;;;35.40;14.20;;;;;;;-7.02;100.00;96647.22;5046178;28;20052;-61
2022/12/12 03:37:50;;;;;;;29.67;14.60;;;;;;;-7.27;100.00;96644.47;5046867;28;20135;-64
2022/12/12 03:40:48;;;;;;;23.50;11.05;;;;;;;-7.39;100.00;96638.69;5049028;28;20338;-61
2022/12/12 03:43:20;;;;;;;30.13;13.50;;;;;;;-7.39;100.00;96646.56;5045349;28;20140;-63
2022/12/12 03:46:22;;;;;;;29.67;14.48;;;;;;;-7.44;100.00;96644.38;5045444;28;20432;-62
2022/12/12 03:48:58;;;;;;;;;;;;;;;-7.24;100.00;96649.44;5033811;28;20061;-62
2022/12/12 03:51:36;;;;;;;34.55;13.40;;;;;;;-7.14;100.00;96649.31;5048741;28;20023;-62
2022/12/12 03:54:16;;;;;;;33.67;13.25;;;;;;;-6.91;100.00;96646.13;5048065;28;20044;-61
2022/12/12 03:56:56;;;;;;;39.55;14.07;;;;;;;-6.85;100.00;96645.50;5047370;28;20285;-62
2022/12/12 03:59:33;;;;;;;32.13;13.52;;;;;;;-6.81;100.00;96652.06;5049192;28;20091;-62
2022/12/12 04:02:28;;;;;;;27.88;13.68;;;;;;;-6.85;100.00;96644.66;5048848;28;20053;-62
2022/12/12 04:05:02;;;;;;;28.90;14.20;;;;;;;-6.88;100.00;96645.81;5044519;28;20055;-61
2022/12/12 04:07:38;;;;;;;30.02;14.35;;;;;;;-6.86;100.00;96648.28;5049407;28;20053;-62
2022/12/12 04:13:10;;;;;;;31.48;13.07;;;;;;;-6.92;100.00;96649.75;5049188;28;20052;-61
2022/12/12 04:15:54;;;;;;;25.90;13.05;;;;;;;-7.08;100.00;96655.78;5048677;28;20071;-61
2022/12/12 04:18:39;;;;;;;31.80;12.45;;;;;;;-7.27;100.00;96657.63;5030288;28;20247;-62
2022/12/12 04:24:33;;;;;;;27.85;12.57;;;;;;;-7.27;100.00;96655.00;5028983;28;20048;-61
2022/12/12 04:27:36;;;;;;;31.90;14.18;;;;;;;-7.22;100.00;96659.81;5028740;28;20045;-61
2022/12/12 04:30:09;;;;;;;30.05;13.45;;;;;;;-7.22;100.00;96663.25;5031126;28;20045;-61
2022/12/12 04:32:50;;;;;;;29.95;13.15;;;;;;;-7.25;100.00;96668.84;5028428;28;20164;-61
2022/12/12 04:35:40;;;;;;;29.58;13.70;;;;;;;-7.18;100.00;96666.41;5028777;28;20108;-61
2022/12/12 04:38:17;;;;;;;31.13;13.40;;;;;;;-7.14;100.00;96675.63;5026870;28;20046;-62
2022/12/12 04:40:49;;;;;;;30.48;13.20;;;;;;;-7.21;100.00;96675.44;5027935;28;20509;-62
2022/12/12 04:43:21;;;;;;;28.92;13.27;;;;;;;-7.18;100.00;96677.75;5028615;28;20103;-61
2022/12/12 04:45:57;;;;;;;31.50;13.90;;;;;;;-7.25;100.00;96675.91;5028589;28;20053;-61
2022/12/12 04:48:30;;;;;;;30.35;13.68;;;;;;;-7.29;100.00;96670.13;5029964;28;20567;-61
2022/12/12 04:51:05;;;;;;;29.63;13.10;;;;;;;-7.41;100.00;96676.63;5027492;28;20532;-61
2022/12/12 04:53:37;;;;;;;24.83;11.57;;;;;;;-7.33;100.00;96674.88;5028557;28;20041;-61
2022/12/12 04:56:08;;;;;;;36.95;17.15;;;;;;;-7.24;100.00;96683.63;5041207;28;20141;-60
2022/12/12 04:58:37;;;;;;;33.92;17.02;;;;;;;-7.12;100.00;96680.75;5048421;28;20488;-61
2022/12/12 05:01:09;;;;;;;36.28;16.63;;;;;;;-7.05;100.00;96677.31;5047508;28;20048;-61
2022/12/12 05:03:59;;;;;;;37.72;16.63;;;;;;;-6.92;100.00;96676.88;5048432;28;20041;-62
2022/12/12 05:06:37;;;;;;;31.77;14.77;;;;;;;-6.75;100.00;96666.41;5048298;28;20041;-61
2022/12/12 05:09:05;;;;;;;28.35;14.13;;;;;;;-6.58;100.00;96671.72;5038362;28;20065;-61
2022/12/12 05:11:33;;;;;;;32.72;17.08;;;;;;;-6.53;100.00;96677.31;5068045;28;20044;-61
2022/12/12 05:13:59;;;;;;;38.55;17.63;;;;;;;-6.48;100.00;96674.22;5068130;28;20129;-61
2022/12/12 05:16:39;;;;;;;35.53;16.98;;;;;;;-6.45;100.00;96679.16;5068019;28;20087;-61
2022/12/12 05:19:06;;;;;;;32.35;16.60;;;;;;;-6.35;100.00;96673.75;5062294;28;20506;-61
2022/12/12 05:21:32;;;;;;;30.30;15.32;;;;;;;-6.38;100.00;96677.53;5046028;28;20045;-62
2022/12/12 05:23:58;;;;;;;36.38;15.50;;;;;;;-6.29;100.00;96681.00;5047706;28;20136;-62
2022/12/12 05:26:26;;;;;;;34.28;14.93;;;;;;;-6.17;100.00;96686.78;5048231;28;20067;-61
2022/12/12 05:28:53;;;;;;;38.65;17.35;;;;;;;-6.18;100.00;96680.72;5047707;28;20056;-62
2022/12/12 05:31:20;;;;;;;26.13;13.00;;;;;;;-6.09;100.00;96681.53;5046483;28;20128;-63
2022/12/12 05:33:47;;;;;;;32.30;13.75;;;;;;;-5.94;100.00;96684.31;5048094;28;20049;-62
2022/12/12 05:36:15;;;;;;;34.92;16.15;;;;;;;-5.93;100.00;96685.94;5047486;28;20501;-60
2022/12/12 05:38:41;;;;;;;28.55;14.52;;;;;;;-6.02;100.00;96684.28;5027921;28;20111;-62
2022/12/12 05:41:08;;;;;;;39.97;15.05;;;;;;;-5.97;100.00;96683.81;5027438;28;20309;-62
2022/12/12 05:43:35;;;;;;;33.80;14.75;;;;;;;-5.98;100.00;96684.81;5027670;28;20048;-63
2022/12/12 05:46:03;;;;;;;30.50;16.13;;;;;;;-5.91;100.00;96691.91;5038484;28;20033;-63
2022/12/12 05:48:30;;;;;;;27.02;13.07;;;;;;;-5.92;100.00;96692.88;5029719;28;20432;-63
2022/12/12 05:50:56;;;;;;;33.28;16.83;;;;;;;-5.97;100.00;96692.53;5046775;28;20488;-62
2022/12/12 05:53:22;;;;;;;35.10;16.88;;;;;;;-6.06;100.00;96689.13;5033330;28;20057;-61
2022/12/12 05:55:52;;;;;;;34.97;18.15;;;;;;;-6.14;100.00;96689.09;5027008;28;20128;-62
2022/12/12 05:58:19;;;;;;;32.03;14.98;;;;;;;-5.97;100.00;96694.34;5027885;28;20099;-61
2022/12/12 06:00:47;;;;;;;29.52;13.65;;;;;;;-5.93;100.00;96693.84;5026192;28;20045;-63
2022/12/12 06:03:14;;;;;;;29.88;14.55;;;;;;;-5.97;100.00;96703.06;5027829;28;20057;-63
2022/12/12 06:05:41;;;;;;;34.63;14.50;;;;;;;-6.06;100.00;96690.91;5046487;28;20041;-62
2022/12/12 06:08:08;;;;;;;32.25;14.93;;;;;;;-6.07;100.00;96705.09;5046761;28;20045;-62
2022/12/12 06:10:34;;;;;;;32.08;17.10;;;;;;;-6.09;100.00;96704.44;5053102;28;20049;-61
2022/12/12 06:13:01;;;;;;;29.23;15.48;;;;;;;-6.19;100.00;96699.31;5066958;28;20052;-63
2022/12/12 06:15:28;;;;;;;36.33;17.15;;;;;;;-6.18;100.00;96696.53;5066695;28;20570;-63
2022/12/12 06:17:55;;;;;;;33.58;16.85;;;;;;;-6.17;100.00;96710.50;5040099;28;20042;-55
2022/12/12 06:20:22;;;;;;;41.95;17.52;;;;;;;-6.18;100.00;96703.59;5043197;28;20047;-58
2022/12/12 06:22:48;;;;;;;35.17;17.25;;;;;;;-6.17;100.00;96707.88;5046057;28;20504;-53
2022/12/12 06:25:19;;;;;;;36.87;17.67;;;;;;;-6.20;100.00;96706.38;5043195;28;20126;-56
2022/12/12 06:27:46;;;;;;;35.78;17.17;;;;;;;-6.17;100.00;96715.78;5046621;28;20279;-57
2022/12/12 06:30:13;;;;;;;39.10;18.60;;;;;;;-6.24;100.00;96709.53;5045657;28;20102;-56
2022/12/12 06:32:39;;;;;;;31.20;14.32;;;;;;;-6.27;100.00;96702.72;5040173;28;20502;-58
2022/12/12 06:35:06;;;;;;;38.10;17.33;;;;;;;-6.19;100.00;96701.94;5026260;28;20099;-55
2022/12/12 06:37:33;;;;;;;33.22;16.65;;;;;;;-6.17;100.00;96710.50;5035667;28;20128;-57
2022/12/12 06:39:59;;;;;;;41.90;19.90;;;;;;;-6.10;100.00;96710.66;5046430;28;20068;-57
2022/12/12 06:42:26;;;;;;;34.60;16.98;;;;;;;-6.13;100.00;96714.47;5025517;28;20513;-59
2022/12/12 06:44:52;;;;;;;25.98;11.82;;;;;;;-6.02;100.00;96713.28;5026062;28;20045;-59
2022/12/12 06:47:19;;;;;;;30.70;12.90;;;;;;;-5.93;100.00;96707.03;5026435;28;20131;-60
2022/12/12 06:49:45;;;;;;;31.30;16.42;;;;;;;-6.09;100.00;96712.34;5039373;28;20040;-59
2022/12/12 06:52:12;;;;;;;34.50;17.38;;;;;;;-6.17;100.00;96711.34;5045569;28;20098;-59
2022/12/12 06:54:39;;;;;;;35.42;16.92;;;;;;;-6.21;100.00;96714.44;5046569;28;20128;-57
2022/12/12 06:57:05;;;;;;;36.45;16.13;;;;;;;-6.18;100.00;96712.31;5040480;28;20038;-58
2022/12/12 06:59:31;;;;;;;35.33;16.70;;;;;;;-6.14;100.00;96712.81;5026289;28;20513;-57
2022/12/12 07:01:58;;;;;;;31.13;15.48;;;;;;;-6.15;100.00;96719.09;5025998;28;20065;-59
2022/12/12 07:04:24;;;;;;;32.80;15.35;;;;;;;-6.15;100.00;96708.53;5031087;28;20045;-58
2022/12/12 07:06:51;;;;;;;28.50;12.77;;;;;;;-6.02;100.00;96713.28;5025994;28;20049;-57
2022/12/12 07:09:19;;;;;;;29.15;15.15;;;;;;;-6.09;100.00;96726.34;5028727;28;20299;-56
2022/12/12 07:11:45;;;;;;;34.30;15.95;;;;;;;-6.10;100.00;96722.06;5065618;28;20119;-58
2022/12/12 07:14:12;;;;;;;37.30;15.13;;;;;;;-6.07;100.00;96716.47;5065775;28;20079;-58
2022/12/12 07:16:38;;;;;;;31.27;14.88;;;;;;;-6.02;100.00;96727.31;5043753;28;20055;-58
2022/12/12 07:19:05;;;;;;;26.05;15.07;;;;;;;-5.89;100.00;96733.91;5031784;28;20192;-58
2022/12/12 07:21:31;;;;;;;26.90;12.10;;;;;;;-5.89;100.00;96732.09;5035699;28;20458;-60
2022/12/12 07:23:58;;;;;;;28.23;13.48;;;;;;;-5.85;100.00;96732.59;5040948;28;20519;-58
2022/12/12 07:26:25;;;;;;;31.65;15.25;;;;;;;-5.88;100.00;96736.41;5038234;28;20051;-57
2022/12/12 07:28:51;;;;;;;23.73;13.27;;;;;;;-5.94;100.00;96731.75;5038280;28;20132;-52
2022/12/12 07:31:20;;;;;;;27.77;13.02;;;;;;;-5.77;100.00;96737.88;5034749;28;20445;-53
2022/12/12 07:33:47;;;;;;;24.20;11.63;;;;;;;-5.73;100.00;96743.66;5034547;28;20045;-57
2022/12/12 07:36:15;;;;;;;28.08;13.68;;;;;;;-5.58;100.00;96743.81;5039415;28;20400;-58
2022/12/12 07:38:42;;;;;;;24.70;12.18;;;;;;;-5.44;100.00;96750.25;5042798;28;20165;-60
2022/12/12 07:41:13;;;;;;;23.25;12.27;;;;;;;-5.37;100.00;96761.81;5055286;28;20114;-53
2022/12/12 07:43:41;;;;;;;29.87;13.63;;;;;;;-5.32;100.00;96761.28;5043727;28;20056;-56
2022/12/12 07:46:13;;;;;;;23.17;12.65;;;;;;;-5.34;100.00;96763.28;5043247;28;20366;-54
2022/12/12 07:48:40;;;;;;;25.10;12.00;;;;;;;-5.26;100.00;96773.84;5041822;28;20055;-56
2022/12/12 07:51:06;;;;;;;29.02;12.45;;;;;;;-5.36;99.70;96765.25;5030212;28;20124;-58
2022/12/12 07:53:33;;;;;;;24.45;11.60;;;;;;;-5.56;100.00;96762.13;5029946;28;20045;-61
2022/12/12 07:56:04;;;;;;;28.77;13.45;;;;;;;-5.64;100.00;96768.22;5038852;28;20065;-60
2022/12/12 07:58:31;;;;;;;24.55;11.95;;;;;;;-5.68;100.00;96775.63;5043426;28;20064;-60
2022/12/12 08:00:57;;;;;;;31.40;15.07;;;;;;;-5.76;100.00;96770.34;5043108;28;20531;-59
2022/12/12 08:03:24;;;;;;;30.58;14.85;;;;;;;-5.77;100.00;96769.53;5028038;28;20075;-58
2022/12/12 08:05:50;;;;;;;28.67;12.93;;;;;;;-5.69;100.00;96776.63;5037367;28;20037;-59
2022/12/12 08:08:17;;;;;;;32.70;13.60;;;;;;;-5.52;100.00;96774.84;5061950;28;20045;-57
2022/12/12 08:10:44;;;;;;;25.48;13.75;;;;;;;-5.26;100.00;96778.28;5035379;28;20045;-56
2022/12/12 08:13:10;;;;;;;30.40;13.45;;;;;;;-5.15;99.81;96772.66;5043432;28;20045;-58
2022/12/12 08:15:37;;;;;;;22.13;11.15;;;;;;;-5.27;100.00;96781.91;5035748;28;20131;-59
2022/12/12 08:18:03;;;;;;;24.30;12.07;;;;;;;-5.16;100.00;96781.56;5034311;28;20051;-60
2022/12/12 08:20:30;;;;;;;28.15;12.50;;;;;;;-5.03;99.93;96785.50;5045529;28;20053;-59
2022/12/12 08:22:57;;;;;;;28.52;12.52;;;;;;;-4.99;99.05;96786.81;5054974;28;20041;-60
2022/12/12 08:25:24;;;;;;;27.20;12.30;;;;;;;-5.06;98.34;96788.50;5030023;28;20104;-60
2022/12/12 08:27:50;;;;;;;24.38;11.10;;;;;;;-5.06;98.30;96781.38;5052688;28;20511;-57
2022/12/12 08:30:17;;;;;;;27.85;12.77;;;;;;;-5.03;98.07;96782.88;5036476;28;20045;-59
2022/12/12 08:32:43;;;;;;;29.83;13.63;;;;;;;-5.08;99.09;96791.31;5035040;28;20042;-58
2022/12/12 08:35:10;;;;;;;23.92;13.90;;;;;;;-5.17;100.00;96789.66;5042388;28;20053;-58
2022/12/12 08:37:37;;;;;;;24.70;13.18;;;;;;;-5.14;98.97;96795.44;5058274;28;20049;-60
2022/12/12 08:40:04;;;;;;;20.40;11.27;;;;;;;-5.13;99.63;96796.22;5044695;28;20045;-58
2022/12/12 08:42:31;;;;;;;27.35;14.88;;;;;;;-5.06;98.68;96793.78;5035081;28;20049;-58
2022/12/12 08:44:57;;;;;;;22.00;10.95;;;;;;;-5.11;100.00;96795.09;5044749;28;20128;-60
2022/12/12 08:47:24;;;;;;;39.10;16.92;;;;;;;-5.16;99.88;96791.31;5035010;28;20163;-59
2022/12/12 08:49:50;;;;;;;23.75;12.38;;;;;;;-5.03;99.41;96793.41;5047080;28;20504;-57
2022/12/12 08:52:17;;;;;;;24.40;12.75;;;;;;;-4.98;99.51;96794.56;5039040;28;20058;-60
2022/12/12 08:54:43;;;;;;;28.20;12.18;;;;;;;-4.70;97.94;96790.72;5042038;28;20052;-54
2022/12/12 08:57:10;;;;;;;21.35;10.80;;;;;;;-4.75;97.58;96793.06;5038360;28;20761;-53
2022/12/12 08:59:36;;;;;;;24.08;12.00;;;;;;;-4.73;97.92;96793.69;5042337;28;20558;-55
2022/12/12 09:02:03;;;;;;;26.13;13.70;;;;;;;-4.74;98.89;96789.41;5055163;28;20098;-56
2022/12/12 09:04:29;;;;;;;29.63;14.63;;;;;;;-4.84;98.51;96798.34;5049930;28;20061;-55
2022/12/12 09:06:56;;;;;;;29.10;11.75;;;;;;;-4.80;98.80;96796.19;5041093;28;20693;-55
2022/12/12 09:09:22;;;;;;;31.83;15.50;;;;;;;-4.76;97.16;96807.25;5044238;28;20106;-53
2022/12/12 09:11:49;;;;;;;30.10;15.20;;;;;;;-4.78;97.93;96806.59;5054832;28;20463;-60
2022/12/12 09:14:15;;;;;;;21.00;10.32;;;;;;;-4.74;98.52;96802.63;5035940;28;20068;-58
2022/12/12 09:16:42;;;;;;;23.27;10.43;;;;;;;-4.58;97.06;96807.88;5037164;28;20060;-56
2022/12/12 09:19:09;;;;;;;23.10;11.63;;;;;;;-4.47;96.61;96813.78;5050834;28;20053;-62
2022/12/12 09:21:36;;;;;;;26.70;12.98;;;;;;;-4.70;97.74;96817.97;5051554;28;20522;-61
2022/12/12 09:24:03;;;;;;;30.27;13.88;;;;;;;-4.70;98.12;96815.34;5029341;28;20059;-57
2022/12/12 09:26:29;;;;;;;35.97;18.67;;;;;;;-4.66;97.52;96823.75;5036010;28;20470;-61
2022/12/12 09:28:56;;;;;;;37.22;18.08;;;;;;;-4.47;96.99;96819.06;5045072;28;20106;-57
2022/12/12 09:31:22;;;;;;;27.63;13.38;;;;;;;-4.33;97.51;96826.28;5038850;28;20061;-58
2022/12/12 09:33:49;;;;;;;21.63;11.73;;;;;;;-4.34;96.32;96821.19;5043040;28;20110;-60
2022/12/12 09:36:16;;;;;;;40.42;20.65;;;;;;;-4.26;95.31;96821.16;5037718;28;20056;-53
2022/12/12 09:38:43;;;;;;;32.42;14.25;;;;;;;-4.12;94.35;96827.53;5044444;28;20084;-59
2022/12/12 09:41:09;;;;;;;23.67;11.10;;;;;;;-4.13;94.05;96827.72;5038312;28;20072;-55
2022/12/12 09:43:45;;;;;;;24.25;10.73;;;;;;;-3.99;93.56;96824.31;5046467;28;20048;-60
2022/12/12 09:46:23;;;;;;;27.02;12.40;;;;;;;-3.88;92.96;96830.25;5046847;28;20041;-60
2022/12/12 09:48:50;;;;;;;23.95;11.07;;;;;;;-3.92;94.13;96821.81;5041931;28;20461;-55
2022/12/12 09:51:16;;;;;;;24.23;12.27;;;;;;;-3.70;92.66;96820.22;5042658;28;20040;-62
2022/12/12 09:53:45;;;;;;;40.42;20.83;;;;;;;-3.72;93.61;96818.75;5036983;28;20106;-58
2022/12/12 09:56:28;;;;;;;24.65;13.68;;;;;;;-3.55;92.27;96809.69;5031018;28;20055;-61
2022/12/12 09:59:06;;;;;;;21.00;11.07;;;;;;;-3.53;91.78;96798.94;5040461;28;20060;-61
2022/12/12 10:01:59;;;;;;;24.55;11.45;;;;;;;-3.62;91.43;96807.94;5041637;28;20055;-62
2022/12/12 10:04:50;;;;;;;29.30;16.92;;;;;;;-3.74;91.93;96803.03;5015983;28;20540;-61
2022/12/12 10:07:46;;;;;;;26.40;12.60;;;;;;;-3.67;92.06;96811.94;5038072;28;20045;-61
2022/12/12 10:10:30;;;;;;;23.80;11.18;;;;;;;-3.67;92.72;96808.44;5046316;28;20315;-60
2022/12/12 10:12:58;;;;;;;22.75;11.20;;;;;;;-3.72;92.98;96808.97;5038357;28;20048;-62
2022/12/12 10:15:38;;;;;;;23.13;13.35;;;;;;;-3.61;92.92;96799.00;5035761;28;20159;-62
2022/12/12 10:18:11;;;;;;;28.42;15.20;;;;;;;-3.66;93.34;96805.63;5034078;28;20049;-59
2022/12/12 10:20:51;;;;;;;26.10;13.27;;;;;;;-3.57;93.11;96806.38;5049317;28;20043;-60
2022/12/12 10:23:32;;;;;;;22.98;9.73;;;;;;;-3.28;91.75;96809.34;5038233;28;20052;-55
2022/12/12 10:26:09;;;;;;;23.52;10.63;;;;;;;-3.23;90.59;96814.94;5039446;28;20132;-58
2022/12/12 10:28:36;;;;;;;20.63;10.82;;;;;;;-3.08;90.90;96809.69;5040375;28;20049;-56
2022/12/12 10:31:27;;;;;;;21.95;11.82;;;;;;;-2.88;91.34;96809.16;5041951;28;20172;-58
2022/12/12 10:33:54;;;;;;;23.25;12.18;;;;;;;-2.93;89.19;96814.16;5037177;28;20045;-60
2022/12/12 10:36:42;;;;;;;25.02;11.32;;;;;;;-2.85;90.15;96808.81;5043943;28;20114;-59
2022/12/12 10:39:37;;;;;;;25.35;11.40;;;;;;;-2.58;87.71;96809.19;5030447;28;20087;-60
2022/12/12 10:42:28;;;;;;;21.13;11.45;;;;;;;-2.64;88.54;96812.56;5027084;28;20111;-60
2022/12/12 10:45:17;;;;;;;23.35;11.68;;;;;;;-2.69;89.57;96807.00;5040003;28;20479;-60
2022/12/12 10:47:45;;;;;;;19.98;10.32;;;;;;;-2.80;90.50;96806.44;5034595;28;20102;-56
2022/12/12 10:50:31;;;;;;;23.85;11.82;;;;;;;-2.89;89.95;96813.66;5039759;28;20068;-57
2022/12/12 10:52:59;;;;;;;25.00;10.48;;;;;;;-2.61;88.39;96799.78;5033984;28;20041;-59
2022/12/12 10:55:51;;;;;;;23.60;11.52;;;;;;;-2.59;89.53;96796.16;5034058;28;20045;-56
2022/12/12 10:58:17;;;;;;;22.23;12.68;;;;;;;-2.64;89.59;96801.97;5033741;28;20033;-56
2022/12/12 11:00:47;;;;;;;27.25;12.02;;;;;;;-2.77;90.16;96802.59;5039373;28;20357;-55
2022/12/12 11:03:31;;;;;;;19.67;10.05;;;;;;;-2.72;91.24;96800.25;5036373;28;20047;-57
2022/12/12 11:06:03;;;;;;;25.98;11.68;;;;;;;-2.69;90.30;96797.22;5043247;28;20041;-59
2022/12/12 11:08:35;;;;;;;27.48;12.38;;;;;;;-2.75;91.42;96797.94;5044582;28;20131;-55
2022/12/12 11:11:21;;;;;;;;;;;;;;;-2.80;91.73;96793.19;5044457;28;20049;-59
2022/12/12 11:14:22;;;;;;;23.52;10.25;;;;;;;-2.68;90.62;96793.56;5031418;28;19925;-54
2022/12/12 11:16:49;;;;;;;22.10;11.93;;;;;;;-2.66;90.63;96793.41;5036645;28;20052;-56
2022/12/12 11:19:17;;;;;;;27.33;11.98;;;;;;;-2.68;90.43;96790.94;5040068;28;20059;-57
2022/12/12 11:21:44;;;;;;;24.02;11.70;;;;;;;-2.38;88.21;96790.09;5036227;28;20117;-58
2022/12/12 11:24:19;;;;;;;23.55;11.93;;;;;;;-2.21;87.72;96785.44;5031475;28;20065;-58
2022/12/12 11:26:55;;;;;;;22.08;11.23;;;;;;;-2.26;87.39;96788.63;5034733;28;20065;-62
2022/12/12 11:29:39;;;;;;;19.77;10.95;;;;;;;-2.12;86.88;96778.19;5036590;28;20056;-60
2022/12/12 11:32:20;;;;;;;22.58;11.38;;;;;;;-2.04;87.15;96779.88;5038378;28;20045;-60
2022/12/12 11:34:51;;;;;;;20.80;10.55;;;;;;;-2.03;85.82;96777.06;5030941;28;20046;-62
2022/12/12 11:37:21;;;;;;;22.00;10.80;;;;;;;-2.11;85.60;96777.16;5041518;28;20064;-61
2022/12/12 11:39:50;;;;;;;22.77;10.82;;;;;;;-2.15;85.66;96770.56;5042102;28;20049;-61
2022/12/12 11:42:24;;;;;;;19.00;10.60;;;;;;;-2.15;84.61;96782.03;5035476;28;20104;-59